Flag for USA

Past Weather in 39°44'53.5"N, 94°52'54.5"W, USA — Yesterday and Last 2 Weeks

Currently: 74 °F. Mild. (Weather station: Saint Joseph - MADIS Station, USA). See more current weather

Past Weather in 39°44'53.5"N, 94°52'54.5"W — Graph

°F

39°44'53.5"N, 94°52'54.5"W Temperature Yesterday

Maximum temperature yesterday: 81 °F (at 5:10 pm)
Minimum temperature yesterday: 62 °F (at 4:40 am)
Average temperature yesterday: 72 °F

High & Low Weather Summary for the Past Weeks

 TemperatureHumidityPressure
High90 °F (May 12, 4:30 pm)97% (May 6, 1:30 am)29.00 "Hg (May 6, 1:30 am)
Low49 °F (May 7, 6:05 am)31% (May 12, 4:30 pm)28.31 "Hg (May 20, 12:20 am)
Average70 °F68%28.78 "Hg
* Reported May 5 1:30 am — May 20 1:35 am, 39°44'53.5"N, 94°52'54.5"W. Weather by CustomWeather, © 2022

Note: Actual official high and low records may vary slightly from our data, if they occured in-between our weather recording intervals... More about our weather records

39°44'53.5"N, 94°52'54.5"W Weather History for the Previous 24 Hours

Scroll right to see more
 ConditionsComfort  
Time TempWeatherWind HumidityBarometerVisibility
1:35 am
Fri, May 20
74 °FMild.8 mph81%28.31 "HgN/A
1:15 am74 °FMild.9 mph82%28.31 "HgN/A
12:35 am74 °FMild.7 mph83%28.31 "HgN/A
12:20 am73 °FMild.6 mph83%28.31 "HgN/A
12:00 am73 °FMild.6 mph82%28.34 "HgN/A
11:20 pm
Thu, May 19
72 °FMild.7 mph79%28.34 "HgN/A
11:05 pm72 °FMild.7 mph79%28.34 "HgN/A
10:30 pm73 °FMild.6 mph76%28.37 "HgN/A
10:20 pm73 °FMild.7 mph75%28.37 "HgN/A
9:20 pm74 °FMild.6 mph69%28.37 "HgN/A
9:10 pm75 °FMild.6 mph68%28.37 "HgN/A
7:55 pm77 °FMild.6 mph62%28.37 "HgN/A
7:05 pm78 °FWarm.7 mph58%28.37 "HgN/A
6:35 pm79 °FWarm.7 mph57%28.37 "HgN/A
6:20 pm80 °FWarm.7 mph55%28.37 "HgN/A
6:10 pm80 °FWarm.9 mph54%28.37 "HgN/A
5:35 pm80 °FWarm.8 mph52%28.40 "HgN/A
5:10 pm81 °FWarm.10 mph51%28.40 "HgN/A
4:35 pm81 °FWarm.9 mph52%28.40 "HgN/A
2:00 pm79 °FWarm.11 mph55%28.49 "HgN/A
1:35 pm79 °FWarm.8 mph57%28.49 "HgN/A
1:15 pm79 °FWarm.10 mph58%28.49 "HgN/A
1:05 pm78 °FWarm.8 mph61%28.51 "HgN/A
12:35 pm77 °FMild.8 mph65%28.51 "HgN/A
12:20 pm77 °FWarm.8 mph66%28.51 "HgN/A
11:35 am77 °FMild.8 mph73%28.54 "HgN/A
11:05 am76 °FMild.3 mph73%28.54 "HgN/A
10:30 am73 °FMild.2 mph75%28.57 "HgN/A
10:20 am72 °FMild.5 mph75%28.57 "HgN/A
10:10 am72 °FMild.6 mph76%28.57 "HgN/A
9:30 am69 °FMild.7 mph82%28.60 "HgN/A
7:30 am63 °FMild.3 mph91%28.63 "HgN/A
7:15 am63 °FMild.No wind91%28.63 "HgN/A
7:05 am62 °FCool.No wind92%28.66 "HgN/A
6:35 am62 °FCool.No wind92%28.66 "HgN/A
6:15 am62 °FMild.No wind91%28.66 "HgN/A
6:05 am63 °FMild.No wind90%28.66 "HgN/A
5:35 am62 °FMild.No wind90%28.66 "HgN/A
5:00 am62 °FCool.No wind89%28.66 "HgN/A
4:40 am62 °FCool.No wind88%28.66 "HgN/A
4:05 am62 °FCool.No wind87%28.66 "HgN/A
3:10 am67 °FMild.No wind73%28.69 "HgN/A
Weather by CustomWeather, © 2022

See weather overview